Time;durP1;ratioP1;P1;durP2;ratioP2;P2;SDS_P1;SDS_P2;PMS_P1;PMS_P2;Temp;Humidity;BMP_temperature;BMP_pressure;BME280_temperature;BME280_humidity;BME280_pressure;Samples;Min_cycle;Max_cycle;Signal;HPM_P1;HPM_P2
2022/10/14 00:01:32;;;;;;;67.70;41.88;;;;;;;;;;5053735;28;20041;-72
2022/10/14 00:03:58;;;;;;;55.08;37.60;;;;;;;;;;5049917;28;20095;-72
2022/10/14 00:06:27;;;;;;;68.32;42.33;;;;;;;;;;5051072;28;20056;-72
2022/10/14 00:08:53;;;;;;;66.25;42.72;;;;;;;;;;5046991;28;20045;-72
2022/10/14 00:11:21;;;;;;;54.60;38.28;;;;;;;;;;5052243;28;20375;-72
2022/10/14 00:13:48;;;;;;;71.28;44.25;;;;;;;;;;5052877;28;20037;-71
2022/10/14 00:16:18;;;;;;;89.80;47.17;;;;;;;;;;5053392;28;20056;-72
2022/10/14 00:18:45;;;;;;;69.43;41.30;;;;;;;;;;5055064;28;20041;-72
2022/10/14 00:21:11;;;;;;;63.55;39.58;;;;;;;;;;5052803;28;20041;-73
2022/10/14 00:23:37;;;;;;;64.82;41.75;;;;;;;;;;5019316;28;20441;-72
2022/10/14 00:26:03;;;;;;;76.18;43.88;;;;;;;;;;5053324;28;20456;-72
2022/10/14 00:28:29;;;;;;;81.90;45.47;;;;;;;;;;5053226;28;20407;-72
2022/10/14 00:30:56;;;;;;;56.90;37.90;;;;;;;;;;5034911;28;20044;-72
2022/10/14 00:33:23;;;;;;;57.53;37.65;;;;;;;;;;5053351;28;20402;-72
2022/10/14 00:35:58;;;;;;;78.72;43.95;;;;;;;;;;5054563;28;20143;-72
2022/10/14 00:38:24;;;;;;;67.90;41.42;;;;;;;;;;5052412;28;20051;-72
2022/10/14 00:40:51;;;;;;;69.13;42.67;;;;;;;;;;5049990;28;20056;-72
2022/10/14 00:43:17;;;;;;;65.18;40.40;;;;;;;;;;5034523;28;20060;-72
2022/10/14 00:45:43;;;;;;;65.70;39.90;;;;;;;;;;5048108;28;20043;-72
2022/10/14 00:48:10;;;;;;;93.05;47.22;;;;;;;;;;5051789;28;20049;-72
2022/10/14 00:50:36;;;;;;;69.32;40.47;;;;;;;;;;5052244;28;20049;-72
2022/10/14 00:53:03;;;;;;;58.72;39.08;;;;;;;;;;5063510;28;20112;-72
2022/10/14 00:55:29;;;;;;;72.25;44.33;;;;;;;;;;5051428;28;20086;-73
2022/10/14 00:57:56;;;;;;;69.97;41.85;;;;;;;;;;5051970;28;20064;-72
2022/10/14 01:00:22;;;;;;;63.80;40.55;;;;;;;;;;5051208;28;20052;-72
2022/10/14 01:02:48;;;;;;;79.47;42.95;;;;;;;;;;5050680;28;20037;-72
2022/10/14 01:05:16;;;;;;;58.38;38.65;;;;;;;;;;5052181;28;20041;-72
2022/10/14 01:07:51;;;;;;;64.95;41.03;;;;;;;;;;5050120;28;20106;-72
2022/10/14 01:10:23;;;;;;;67.40;40.08;;;;;;;;;;5060123;28;20053;-72
2022/10/14 01:13:08;;;;;;;69.90;40.65;;;;;;;;;;5050647;28;20056;-72
2022/10/14 01:15:46;;;;;;;65.22;39.10;;;;;;;;;;5045817;28;20045;-72
2022/10/14 01:18:31;;;;;;;54.75;35.53;;;;;;;;;;5052052;28;20399;-72
2022/10/14 01:21:01;;;;;;;48.97;32.95;;;;;;;;;;5051875;28;20491;-72
2022/10/14 01:23:36;;;;;;;63.75;38.88;;;;;;;;;;5049639;28;20072;-72
2022/10/14 01:26:08;;;;;;;65.10;37.13;;;;;;;;;;5050879;28;20053;-72
2022/10/14 01:28:46;;;;;;;69.43;39.78;;;;;;;;;;5034261;28;20045;-72
2022/10/14 01:31:23;;;;;;;67.72;37.08;;;;;;;;;;5051852;28;20045;-73
2022/10/14 01:33:52;;;;;;;73.75;38.53;;;;;;;;;;5051478;28;20408;-72
2022/10/14 01:36:21;;;;;;;65.43;36.08;;;;;;;;;;5050214;28;20057;-72
2022/10/14 01:38:50;;;;;;;64.40;36.55;;;;;;;;;;5051804;28;20049;-72
2022/10/14 01:41:21;;;;;;;48.65;31.70;;;;;;;;;;5051180;28;22030;-72
2022/10/14 01:43:49;;;;;;;56.28;34.80;;;;;;;;;;5081854;28;20044;-72
2022/10/14 01:46:16;;;;;;;57.15;33.97;;;;;;;;;;5062072;28;20041;-72
2022/10/14 01:48:45;;;;;;;68.50;35.00;;;;;;;;;;5051704;28;20037;-72
2022/10/14 01:51:15;;;;;;;56.05;32.55;;;;;;;;;;5051789;28;20041;-72
2022/10/14 01:53:43;;;;;;;68.72;34.03;;;;;;;;;;5050600;28;20049;-72
2022/10/14 01:56:11;;;;;;;68.22;35.15;;;;;;;;;;5050231;28;20144;-72
2022/10/14 01:58:37;;;;;;;79.90;35.03;;;;;;;;;;5052506;28;20048;-73
2022/10/14 02:01:04;;;;;;;56.05;32.78;;;;;;;;;;5054427;28;20045;-72
2022/10/14 02:03:40;;;;;;;138.02;37.08;;;;;;;;;;5032580;28;20041;-72
2022/10/14 02:06:08;;;;;;;269.75;34.45;;;;;;;;;;5028263;28;20045;-72
2022/10/14 02:08:53;;;;;;;416.23;36.50;;;;;;;;;;5049481;28;20599;-72
2022/10/14 02:11:20;;;;;;;459.88;35.70;;;;;;;;;;5051476;28;20040;-72
2022/10/14 02:13:46;;;;;;;479.92;34.78;;;;;;;;;;5064009;28;20111;-72
2022/10/14 02:16:16;;;;;;;441.48;31.75;;;;;;;;;;5053007;28;20409;-72
2022/10/14 02:18:56;;;;;;;299.77;27.30;;;;;;;;;;5058887;28;20045;-72
2022/10/14 02:21:29;;;;;;;444.33;32.38;;;;;;;;;;5042051;28;20052;-72
2022/10/14 02:24:00;;;;;;;429.35;33.75;;;;;;;;;;5035850;28;20054;-72
2022/10/14 02:26:26;;;;;;;481.43;34.50;;;;;;;;;;5052226;28;20487;-72
2022/10/14 02:28:53;;;;;;;370.10;31.02;;;;;;;;;;5055373;28;20041;-72
2022/10/14 02:31:20;;;;;;;232.73;26.17;;;;;;;;;;5054946;28;20049;-72
2022/10/14 02:33:49;;;;;;;402.30;29.92;;;;;;;;;;5059641;28;20044;-72
2022/10/14 02:36:17;;;;;;;281.58;27.20;;;;;;;;;;5053198;28;20057;-72
2022/10/14 02:38:44;;;;;;;207.48;24.95;;;;;;;;;;5037631;28;20049;-72
2022/10/14 02:41:13;;;;;;;370.05;32.45;;;;;;;;;;5045494;28;20060;-72
2022/10/14 02:43:39;;;;;;;261.52;27.63;;;;;;;;;;5055340;28;20123;-72
2022/10/14 02:46:06;;;;;;;397.90;34.60;;;;;;;;;;5051626;28;20148;-72
2022/10/14 02:48:32;;;;;;;438.27;33.10;;;;;;;;;;5051927;28;20491;-72
2022/10/14 02:50:58;;;;;;;127.85;24.73;;;;;;;;;;5049162;28;20041;-72
2022/10/14 02:53:24;;;;;;;172.30;26.95;;;;;;;;;;5054548;28;20053;-72
2022/10/14 02:55:50;;;;;;;348.25;31.58;;;;;;;;;;5053334;28;20491;-72
2022/10/14 02:58:16;;;;;;;98.75;25.45;;;;;;;;;;5068920;28;20137;-72
2022/10/14 03:00:42;;;;;;;106.35;23.60;;;;;;;;;;5053633;28;20068;-72
2022/10/14 03:03:08;;;;;;;92.70;21.63;;;;;;;;;;5060032;28;20071;-72
2022/10/14 03:05:34;;;;;;;149.80;23.65;;;;;;;;;;5035808;28;20052;-72
2022/10/14 03:08:00;;;;;;;243.73;27.83;;;;;;;;;;5056151;28;20052;-72
2022/10/14 03:10:26;;;;;;;67.75;20.73;;;;;;;;;;5054210;28;20037;-72
2022/10/14 03:12:52;;;;;;;58.00;23.52;;;;;;;;;;5051047;28;20049;-72
2022/10/14 03:15:18;;;;;;;91.00;23.77;;;;;;;;;;5053375;28;20406;-72
2022/10/14 03:17:44;;;;;;;155.35;21.92;;;;;;;;;;5054634;28;20040;-72
2022/10/14 03:20:11;;;;;;;97.05;21.58;;;;;;;;;;5053848;28;20056;-72
2022/10/14 03:22:37;;;;;;;210.40;24.58;;;;;;;;;;5053813;28;20522;-72
2022/10/14 03:25:05;;;;;;;177.30;25.45;;;;;;;;;;5063683;28;20060;-72
2022/10/14 03:27:31;;;;;;;130.90;21.42;;;;;;;;;;5052258;28;20056;-72
2022/10/14 03:29:57;;;;;;;227.18;25.45;;;;;;;;;;5053147;28;20044;-72
2022/10/14 03:32:23;;;;;;;144.02;22.45;;;;;;;;;;5053815;28;20099;-72
2022/10/14 03:34:49;;;;;;;145.77;20.58;;;;;;;;;;5052171;28;20048;-73
2022/10/14 03:37:15;;;;;;;152.35;23.60;;;;;;;;;;5051869;28;20052;-72
2022/10/14 03:39:41;;;;;;;114.35;20.92;;;;;;;;;;5066427;28;20056;-72
2022/10/14 03:42:07;;;;;;;58.90;16.13;;;;;;;;;;5053215;28;20483;-72
2022/10/14 03:44:33;;;;;;;120.60;19.02;;;;;;;;;;5054097;28;20059;-72
2022/10/14 03:46:59;;;;;;;134.90;20.33;;;;;;;;;;5052007;28;20037;-72
2022/10/14 03:49:25;;;;;;;96.05;19.65;;;;;;;;;;5045718;28;20119;-72
2022/10/14 03:51:51;;;;;;;137.80;19.83;;;;;;;;;;5053344;28;20490;-72
2022/10/14 03:54:17;;;;;;;96.85;18.10;;;;;;;;;;5051637;28;20045;-72
2022/10/14 03:56:43;;;;;;;96.28;19.00;;;;;;;;;;5053322;28;20106;-72
2022/10/14 03:59:10;;;;;;;120.00;19.45;;;;;;;;;;5058257;28;20463;-72
2022/10/14 04:01:36;;;;;;;56.70;15.60;;;;;;;;;;5050188;28;20052;-72
2022/10/14 04:04:02;;;;;;;94.75;19.33;;;;;;;;;;5050264;28;20482;-72
2022/10/14 04:06:29;;;;;;;57.58;17.20;;;;;;;;;;5050582;28;20049;-72
2022/10/14 04:08:55;;;;;;;70.07;18.70;;;;;;;;;;5028678;28;20145;-72
2022/10/14 04:11:21;;;;;;;75.15;17.33;;;;;;;;;;5048747;28;20091;-72
2022/10/14 04:13:48;;;;;;;88.50;19.23;;;;;;;;;;5037988;28;20048;-72
2022/10/14 04:16:14;;;;;;;55.45;17.77;;;;;;;;;;5053022;28;20048;-72
2022/10/14 04:18:40;;;;;;;123.95;21.50;;;;;;;;;;5053612;28;20048;-72
2022/10/14 04:21:07;;;;;;;78.82;21.20;;;;;;;;;;5052814;28;20049;-72
2022/10/14 04:23:36;;;;;;;67.68;19.80;;;;;;;;;;5052775;28;20410;-72
2022/10/14 04:26:03;;;;;;;52.85;21.73;;;;;;;;;;5048503;28;20041;-72
2022/10/14 04:28:29;;;;;;;57.30;23.48;;;;;;;;;;5051898;28;20494;-72
2022/10/14 04:30:55;;;;;;;60.45;24.27;;;;;;;;;;5030492;28;20034;-72
2022/10/14 04:33:21;;;;;;;65.43;26.38;;;;;;;;;;5057285;28;20494;-72
2022/10/14 04:35:47;;;;;;;68.68;26.95;;;;;;;;;;5065859;28;20044;-72
2022/10/14 04:38:13;;;;;;;61.85;26.95;;;;;;;;;;5051102;28;20597;-72
2022/10/14 04:40:40;;;;;;;60.92;24.85;;;;;;;;;;5051122;28;20044;-72
2022/10/14 04:43:06;;;;;;;65.25;26.15;;;;;;;;;;5049418;28;20044;-72
2022/10/14 04:45:32;;;;;;;61.60;26.48;;;;;;;;;;5030863;28;20597;-72
2022/10/14 04:47:58;;;;;;;63.55;28.20;;;;;;;;;;5051860;28;20438;-72
2022/10/14 04:50:24;;;;;;;72.00;28.88;;;;;;;;;;5061722;28;20426;-72
2022/10/14 04:52:50;;;;;;;69.93;28.65;;;;;;;;;;5052978;28;20048;-72
2022/10/14 04:55:16;;;;;;;51.78;24.50;;;;;;;;;;5048753;28;20090;-72
2022/10/14 04:57:42;;;;;;;57.88;26.30;;;;;;;;;;5050501;28;20041;-72
2022/10/14 05:00:09;;;;;;;62.05;27.13;;;;;;;;;;5051523;28;20106;-73
2022/10/14 05:02:36;;;;;;;61.40;27.73;;;;;;;;;;5032965;28;20045;-72
2022/10/14 05:05:02;;;;;;;63.13;28.75;;;;;;;;;;5045461;28;20123;-72
2022/10/14 05:07:28;;;;;;;65.93;31.58;;;;;;;;;;5064049;28;20051;-72
2022/10/14 05:09:54;;;;;;;81.30;32.00;;;;;;;;;;5055129;28;20045;-72
2022/10/14 05:12:20;;;;;;;76.55;32.85;;;;;;;;;;5052278;28;20087;-72
2022/10/14 05:14:46;;;;;;;76.60;36.38;;;;;;;;;;5046814;28;20052;-72
2022/10/14 05:17:13;;;;;;;75.57;32.88;;;;;;;;;;5033965;28;20049;-73
2022/10/14 05:19:39;;;;;;;75.47;31.70;;;;;;;;;;5052665;28;20123;-72
2022/10/14 05:22:05;;;;;;;64.45;30.58;;;;;;;;;;5050352;28;20044;-72
2022/10/14 05:24:31;;;;;;;66.15;32.10;;;;;;;;;;5043036;28;20082;-72
2022/10/14 05:26:57;;;;;;;59.45;28.80;;;;;;;;;;5050323;28;20048;-72
2022/10/14 05:29:23;;;;;;;57.45;29.10;;;;;;;;;;5033378;28;20042;-72
2022/10/14 05:31:49;;;;;;;44.17;25.35;;;;;;;;;;5048270;28;20037;-72
2022/10/14 05:34:15;;;;;;;42.97;25.73;;;;;;;;;;5051881;28;20048;-72
2022/10/14 05:36:41;;;;;;;42.78;25.45;;;;;;;;;;5047262;28;20055;-72
2022/10/14 05:39:08;;;;;;;50.78;25.95;;;;;;;;;;5050439;28;20560;-72
2022/10/14 05:41:34;;;;;;;55.67;30.30;;;;;;;;;;5050937;28;20083;-72
2022/10/14 05:44:00;;;;;;;62.28;31.77;;;;;;;;;;5066840;28;20076;-72
2022/10/14 05:46:26;;;;;;;69.18;34.58;;;;;;;;;;5048036;28;20041;-72
2022/10/14 05:48:52;;;;;;;65.65;33.75;;;;;;;;;;5050841;28;20053;-72
2022/10/14 05:51:20;;;;;;;69.88;35.30;;;;;;;;;;5049787;28;20056;-72
2022/10/14 05:53:46;;;;;;;67.20;33.67;;;;;;;;;;5047342;28;20041;-72
2022/10/14 05:56:12;;;;;;;53.90;29.80;;;;;;;;;;5034937;28;20494;-72
2022/10/14 05:58:39;;;;;;;56.92;29.60;;;;;;;;;;5064738;28;20045;-72
2022/10/14 06:01:06;;;;;;;50.88;29.05;;;;;;;;;;5033157;28;20041;-72
2022/10/14 06:03:33;;;;;;;57.30;30.33;;;;;;;;;;5053112;28;20056;-72
2022/10/14 06:05:59;;;;;;;53.88;29.58;;;;;;;;;;5052608;28;20049;-72
2022/10/14 06:08:25;;;;;;;52.63;28.17;;;;;;;;;;5053570;28;20474;-72
2022/10/14 06:10:52;;;;;;;52.53;29.30;;;;;;;;;;5050303;28;20095;-72
2022/10/14 06:13:18;;;;;;;47.08;28.20;;;;;;;;;;5050172;28;20098;-72
2022/10/14 06:15:44;;;;;;;43.78;27.27;;;;;;;;;;5063852;28;20048;-72
2022/10/14 06:18:10;;;;;;;45.95;26.95;;;;;;;;;;5054977;28;20375;-72
2022/10/14 06:20:36;;;;;;;49.72;29.25;;;;;;;;;;5037607;28;20037;-72
2022/10/14 06:23:02;;;;;;;55.78;34.05;;;;;;;;;;5036391;28;20052;-72
2022/10/14 06:25:29;;;;;;;44.13;29.67;;;;;;;;;;5054277;28;20462;-72
2022/10/14 06:27:55;;;;;;;49.03;31.75;;;;;;;;;;5053754;28;20052;-72
2022/10/14 06:30:21;;;;;;;43.78;29.38;;;;;;;;;;5053320;28;20045;-72
2022/10/14 06:32:47;;;;;;;46.50;30.70;;;;;;;;;;5045064;28;20049;-72
2022/10/14 06:35:13;;;;;;;47.80;29.45;;;;;;;;;;5046215;28;20056;-72
2022/10/14 06:37:39;;;;;;;54.22;31.30;;;;;;;;;;5052399;28;20041;-72
2022/10/14 06:40:05;;;;;;;50.63;29.42;;;;;;;;;;5052980;28;20048;-73
2022/10/14 06:42:33;;;;;;;44.53;27.73;;;;;;;;;;5054136;28;20049;-73
2022/10/14 06:44:59;;;;;;;47.30;29.13;;;;;;;;;;5053018;28;20124;-72
2022/10/14 06:47:25;;;;;;;44.13;26.88;;;;;;;;;;5052605;28;20032;-73
2022/10/14 06:49:51;;;;;;;40.45;25.55;;;;;;;;;;5055949;28;20060;-73
2022/10/14 06:52:17;;;;;;;39.85;24.98;;;;;;;;;;5052030;28;20491;-72
2022/10/14 06:54:43;;;;;;;37.03;23.83;;;;;;;;;;5046907;28;20049;-73
2022/10/14 06:57:09;;;;;;;43.92;25.15;;;;;;;;;;5047972;28;20048;-72
2022/10/14 06:59:37;;;;;;;41.17;23.60;;;;;;;;;;5041368;28;20450;-73
2022/10/14 07:02:04;;;;;;;37.50;23.50;;;;;;;;;;5040414;28;20147;-73
2022/10/14 07:04:30;;;;;;;37.00;22.50;;;;;;;;;;5047659;28;20045;-73
2022/10/14 07:06:57;;;;;;;35.17;22.05;;;;;;;;;;5043284;28;20064;-73
2022/10/14 07:09:23;;;;;;;33.42;22.38;;;;;;;;;;5051041;28;20075;-73
2022/10/14 07:11:50;;;;;;;37.03;23.00;;;;;;;;;;5054117;28;20060;-73
2022/10/14 07:14:16;;;;;;;35.78;22.40;;;;;;;;;;5047076;28;20041;-72
2022/10/14 07:16:44;;;;;;;38.78;23.40;;;;;;;;;;5033678;28;20360;-73
2022/10/14 07:19:11;;;;;;;40.47;23.98;;;;;;;;;;5040462;28;20049;-73
2022/10/14 07:21:37;;;;;;;32.72;22.48;;;;;;;;;;5052443;28;20091;-73
2022/10/14 07:24:03;;;;;;;36.58;23.25;;;;;;;;;;5056571;28;20434;-73
2022/10/14 07:26:30;;;;;;;32.83;22.45;;;;;;;;;;5035587;28;20549;-73
2022/10/14 07:28:56;;;;;;;33.67;22.88;;;;;;;;;;5040166;28;20041;-73
2022/10/14 07:31:22;;;;;;;31.88;22.55;;;;;;;;;;5050154;28;20099;-73
2022/10/14 07:33:48;;;;;;;32.58;22.15;;;;;;;;;;5052243;28;20106;-73
2022/10/14 07:36:15;;;;;;;30.73;21.90;;;;;;;;;;5052240;28;20500;-73
2022/10/14 07:38:42;;;;;;;30.05;21.95;;;;;;;;;;5052108;28;20114;-73
2022/10/14 07:41:15;;;;;;;31.50;21.65;;;;;;;;;;5055768;28;20041;-73
2022/10/14 07:43:42;;;;;;;29.35;21.05;;;;;;;;;;5050385;28;20049;-73
2022/10/14 07:46:08;;;;;;;31.98;21.55;;;;;;;;;;5047453;28;20557;-73
2022/10/14 07:48:34;;;;;;;33.40;22.33;;;;;;;;;;5040194;28;20080;-73
2022/10/14 07:51:01;;;;;;;35.33;22.73;;;;;;;;;;5043114;28;20132;-73
2022/10/14 07:53:28;;;;;;;34.78;23.33;;;;;;;;;;5044788;28;20156;-73
2022/10/14 07:55:56;;;;;;;35.53;23.73;;;;;;;;;;5052213;28;20567;-73
2022/10/14 07:58:23;;;;;;;34.22;23.30;;;;;;;;;;5052403;28;20130;-73
2022/10/14 08:00:50;;;;;;;33.45;24.02;;;;;;;;;;5049986;28;20041;-73
2022/10/14 08:03:16;;;;;;;35.92;24.08;;;;;;;;;;5052616;28;20048;-73
2022/10/14 08:05:43;;;;;;;36.58;24.83;;;;;;;;;;5051805;28;20049;-73
2022/10/14 08:08:09;;;;;;;34.05;23.42;;;;;;;;;;5036396;28;20049;-73
2022/10/14 08:10:35;;;;;;;32.97;22.95;;;;;;;;;;5039444;28;20151;-72
2022/10/14 08:13:01;;;;;;;35.92;23.38;;;;;;;;;;5016708;28;20053;-73
2022/10/14 08:15:29;;;;;;;37.42;25.23;;;;;;;;;;5049605;28;20041;-73
2022/10/14 08:17:55;;;;;;;35.38;23.50;;;;;;;;;;5051532;28;20057;-73
2022/10/14 08:20:21;;;;;;;33.80;22.95;;;;;;;;;;5046644;28;20068;-73
2022/10/14 08:22:47;;;;;;;33.70;22.02;;;;;;;;;;5051221;28;20040;-73
2022/10/14 08:25:13;;;;;;;33.00;23.00;;;;;;;;;;5051025;28;20158;-73
2022/10/14 08:27:39;;;;;;;33.95;23.70;;;;;;;;;;5050422;28;20156;-74
2022/10/14 08:30:06;;;;;;;35.90;24.20;;;;;;;;;;5051879;28;20079;-72
2022/10/14 08:32:32;;;;;;;36.15;23.95;;;;;;;;;;5047026;28;20431;-72
2022/10/14 08:34:58;;;;;;;38.03;24.40;;;;;;;;;;5035338;28;20469;-72
2022/10/14 08:37:24;;;;;;;38.35;24.70;;;;;;;;;;5051244;28;20457;-72
2022/10/14 08:39:50;;;;;;;38.50;24.58;;;;;;;;;;5050121;28;20072;-71
2022/10/14 08:42:20;;;;;;;38.65;25.60;;;;;;;;;;5047669;28;20037;-72
2022/10/14 08:44:52;;;;;;;38.10;25.42;;;;;;;;;;5051109;28;20044;-72
2022/10/14 08:47:25;;;;;;;37.42;25.42;;;;;;;;;;5052352;28;20406;-72
2022/10/14 08:50:01;;;;;;;40.58;25.88;;;;;;;;;;5047605;28;20045;-73
2022/10/14 08:52:39;;;;;;;41.15;25.20;;;;;;;;;;5050443;28;20499;-72
2022/10/14 08:55:23;;;;;;;44.55;27.05;;;;;;;;;;5051384;28;20044;-72
2022/10/14 08:57:51;;;;;;;45.50;25.67;;;;;;;;;;5040946;28;20067;-72
2022/10/14 09:00:18;;;;;;;41.45;27.23;;;;;;;;;;5050645;28;20080;-75
2022/10/14 09:02:50;;;;;;;49.53;28.92;;;;;;;;;;5045780;28;20049;-76
2022/10/14 09:05:16;;;;;;;;;;;;;;;;;;5035474;28;20052;-72
2022/10/14 09:07:43;;;;;;;48.72;28.88;;;;;;;;;;5031881;28;19921;-71
2022/10/14 09:10:15;;;;;;;48.85;29.52;;;;;;;;;;5036874;28;20067;-74
2022/10/14 09:12:41;;;;;;;50.97;30.13;;;;;;;;;;5050771;28;20045;-72
2022/10/14 09:15:08;;;;;;;54.63;30.38;;;;;;;;;;5049376;28;20037;-72
2022/10/14 09:17:42;;;;;;;52.83;31.48;;;;;;;;;;5051472;28;20049;-72
2022/10/14 09:20:28;;;;;;;52.28;31.83;;;;;;;;;;5051491;28;20049;-74
2022/10/14 09:22:54;;;;;;;58.40;32.47;;;;;;;;;;5051439;28;20037;-73
2022/10/14 09:25:20;;;;;;;53.70;31.65;;;;;;;;;;5047563;28;20045;-70
2022/10/14 09:27:47;;;;;;;54.42;31.65;;;;;;;;;;5051385;28;20124;-72
2022/10/14 09:30:14;;;;;;;56.00;32.20;;;;;;;;;;5047554;28;20049;-72
2022/10/14 09:32:42;;;;;;;54.15;32.10;;;;;;;;;;5054789;28;20056;-72
2022/10/14 09:35:26;;;;;;;55.90;32.45;;;;;;;;;;5054490;28;20445;-72
2022/10/14 09:37:52;;;;;;;55.30;33.28;;;;;;;;;;5036902;28;20091;-72
2022/10/14 09:40:21;;;;;;;52.08;32.85;;;;;;;;;;5065306;28;20526;-72
2022/10/14 09:42:47;;;;;;;52.85;31.70;;;;;;;;;;5055004;28;20458;-72
2022/10/14 09:45:15;;;;;;;53.15;33.42;;;;;;;;;;5055084;28;20080;-72
2022/10/14 09:47:50;;;;;;;57.97;33.20;;;;;;;;;;5055601;28;20041;-73
2022/10/14 09:50:21;;;;;;;58.80;33.75;;;;;;;;;;5055518;28;20041;-72
2022/10/14 09:52:56;;;;;;;57.78;32.90;;;;;;;;;;5054410;28;20056;-73
2022/10/14 09:55:23;;;;;;;60.10;34.35;;;;;;;;;;5051843;28;20098;-72
2022/10/14 09:58:09;;;;;;;57.97;33.35;;;;;;;;;;5055278;28;20448;-72
2022/10/14 10:00:36;;;;;;;58.65;34.17;;;;;;;;;;5021136;28;20044;-72
2022/10/14 10:03:03;;;;;;;61.78;34.63;;;;;;;;;;5054831;28;20495;-72
2022/10/14 10:05:30;;;;;;;61.30;34.22;;;;;;;;;;5053845;28;20041;-72
2022/10/14 10:08:22;;;;;;;61.53;34.38;;;;;;;;;;5055111;28;20128;-72
2022/10/14 10:11:09;;;;;;;61.97;34.95;;;;;;;;;;5036852;28;20123;-72
2022/10/14 10:13:40;;;;;;;67.88;36.78;;;;;;;;;;5065188;28;20053;-71
2022/10/14 10:16:07;;;;;;;65.18;34.90;;;;;;;;;;5047252;28;20509;-71
2022/10/14 10:18:33;;;;;;;66.03;35.17;;;;;;;;;;5054141;28;20044;-71
2022/10/14 10:21:06;;;;;;;58.60;33.55;;;;;;;;;;5046770;28;20056;-72
2022/10/14 10:23:34;;;;;;;65.47;34.67;;;;;;;;;;5052760;28;20057;-71
2022/10/14 10:26:20;;;;;;;62.20;33.80;;;;;;;;;;5051692;28;20079;-72
2022/10/14 10:28:48;;;;;;;70.35;36.35;;;;;;;;;;5041882;28;20140;-72
2022/10/14 10:31:32;;;;;;;66.28;35.35;;;;;;;;;;5042838;28;20050;-72
2022/10/14 10:34:05;;;;;;;64.28;33.90;;;;;;;;;;5034940;28;20094;-71
2022/10/14 10:36:41;;;;;;;69.35;36.75;;;;;;;;;;5042430;28;20056;-72
2022/10/14 10:39:10;;;;;;;87.57;45.85;;;;;;;;;;5054639;28;20041;-72
2022/10/14 10:41:52;;;;;;;80.65;42.13;;;;;;;;;;5036588;28;20041;-72
2022/10/14 10:44:21;;;;;;;83.53;53.50;;;;;;;;;;5034450;28;20504;-72
2022/10/14 10:46:50;;;;;;;78.90;41.20;;;;;;;;;;5052277;28;20106;-72
2022/10/14 10:49:16;;;;;;;105.88;63.22;;;;;;;;;;5053295;28;20057;-72
2022/10/14 10:51:42;;;;;;;102.18;66.03;;;;;;;;;;5054371;28;20557;-72
2022/10/14 10:54:18;;;;;;;79.25;50.25;;;;;;;;;;5051056;28;20123;-71
2022/10/14 10:56:52;;;;;;;86.05;52.50;;;;;;;;;;5035658;28;20099;-72
2022/10/14 10:59:36;;;;;;;73.93;42.70;;;;;;;;;;5048721;28;20048;-72
2022/10/14 11:02:12;;;;;;;68.80;40.88;;;;;;;;;;5066452;28;20044;-72
2022/10/14 11:04:48;;;;;;;68.18;40.20;;;;;;;;;;5049298;28;20081;-72
2022/10/14 11:13:05;;;;;;;67.63;37.88;;;;;;;;;;5045173;28;20044;-71
2022/10/14 11:15:40;;;;;;;61.92;34.00;;;;;;;;;;5039587;28;20128;-71
2022/10/14 11:18:24;;;;;;;59.83;32.03;;;;;;;;;;5035478;28;20059;-71
2022/10/14 11:20:50;;;;;;;60.08;31.90;;;;;;;;;;5050788;28;20056;-73
2022/10/14 11:23:16;;;;;;;59.42;30.67;;;;;;;;;;5050669;28;20117;-73
2022/10/14 11:26:00;;;;;;;55.58;31.42;;;;;;;;;;5052388;28;20529;-74
2022/10/14 11:28:38;;;;;;;54.15;31.35;;;;;;;;;;5052449;28;20068;-75
2022/10/14 11:31:10;;;;;;;58.80;33.10;;;;;;;;;;5051976;28;20657;-70
2022/10/14 11:33:39;;;;;;;64.32;35.65;;;;;;;;;;5052916;28;20376;-74
2022/10/14 11:36:05;;;;;;;58.28;32.30;;;;;;;;;;5051906;28;20049;-72
2022/10/14 11:38:40;;;;;;;70.30;35.47;;;;;;;;;;5035152;28;20045;-72
2022/10/14 11:41:25;;;;;;;61.53;35.50;;;;;;;;;;5052959;28;20057;-71
2022/10/14 11:43:56;;;;;;;67.43;37.47;;;;;;;;;;5036364;28;20594;-72
2022/10/14 11:46:26;;;;;;;65.72;37.15;;;;;;;;;;5033603;28;20100;-74
2022/10/14 11:48:57;;;;;;;73.72;39.15;;;;;;;;;;5033053;28;20049;-71
2022/10/14 11:51:36;;;;;;;69.70;39.17;;;;;;;;;;5042309;28;20403;-74
2022/10/14 11:54:04;;;;;;;70.78;40.05;;;;;;;;;;5033542;28;20053;-73
2022/10/14 11:56:37;;;;;;;76.35;41.25;;;;;;;;;;5051781;28;20045;-73
2022/10/14 11:59:14;;;;;;;80.00;42.58;;;;;;;;;;5052504;28;20099;-70
2022/10/14 12:01:42;;;;;;;74.97;41.38;;;;;;;;;;5051430;28;20045;-75
2022/10/14 12:04:16;;;;;;;74.57;42.53;;;;;;;;;;5052915;28;20060;-71
2022/10/14 12:06:46;;;;;;;77.30;42.15;;;;;;;;;;5031226;28;20057;-70
2022/10/14 12:09:12;;;;;;;74.45;43.38;;;;;;;;;;5058031;28;20396;-72
2022/10/14 12:11:59;;;;;;;80.28;42.25;;;;;;;;;;5042037;28;20055;-72
2022/10/14 12:14:43;;;;;;;72.15;42.30;;;;;;;;;;5048486;28;20038;-72
2022/10/14 12:17:31;;;;;;;73.68;43.47;;;;;;;;;;5150542;27;1239194;-71
2022/10/14 12:20:00;;;;;;;75.97;44.90;;;;;;;;;;5157057;27;20054;-71
2022/10/14 12:22:28;;;;;;;71.53;43.55;;;;;;;;;;5132892;27;20039;-71
2022/10/14 12:24:56;;;;;;;72.50;43.80;;;;;;;;;;5150992;27;20488;-71
2022/10/14 12:27:25;;;;;;;73.10;43.60;;;;;;;;;;5132486;27;20051;-71
2022/10/14 12:29:51;;;;;;;78.05;43.42;;;;;;;;;;5151497;27;20404;-71
2022/10/14 12:32:20;;;;;;;78.47;43.53;;;;;;;;;;5132730;27;20144;-71
2022/10/14 12:34:56;;;;;;;81.25;45.50;;;;;;;;;;5162449;27;20046;-71
2022/10/14 12:37:33;;;;;;;80.72;45.47;;;;;;;;;;5157928;27;20122;-71
2022/10/14 12:40:02;;;;;;;80.93;44.25;;;;;;;;;;5184508;27;20053;-71
2022/10/14 12:42:34;;;;;;;80.63;45.65;;;;;;;;;;5156421;27;20073;-71
2022/10/14 12:45:02;;;;;;;75.00;44.90;;;;;;;;;;5152376;27;20070;-71
2022/10/14 12:47:32;;;;;;;78.82;46.42;;;;;;;;;;5192544;27;20042;-72
2022/10/14 12:50:01;;;;;;;83.10;46.30;;;;;;;;;;5181986;27;20551;-70
2022/10/14 12:52:31;;;;;;;76.55;45.83;;;;;;;;;;5171544;27;20042;-71
2022/10/14 12:54:59;;;;;;;70.32;44.80;;;;;;;;;;5133056;27;20456;-71
2022/10/14 12:57:32;;;;;;;75.80;46.47;;;;;;;;;;5150171;27;20493;-71
2022/10/14 13:00:06;;;;;;;66.35;44.58;;;;;;;;;;5149603;27;20109;-71
2022/10/14 13:02:32;;;;;;;65.88;44.10;;;;;;;;;;5141668;27;20043;-71
2022/10/14 13:05:01;;;;;;;61.78;43.15;;;;;;;;;;5157831;27;20412;-71
2022/10/14 13:07:29;;;;;;;63.00;43.22;;;;;;;;;;5150520;27;20039;-71
2022/10/14 13:10:18;;;;;;;61.33;42.40;;;;;;;;;;5150330;27;20043;-71
2022/10/14 13:12:44;;;;;;;61.22;43.60;;;;;;;;;;5057252;28;20501;-71
2022/10/14 13:15:33;;;;;;;57.03;42.65;;;;;;;;;;5061800;28;20048;-71
2022/10/14 13:18:19;;;;;;;53.33;40.42;;;;;;;;;;5064248;28;20076;-72
2022/10/14 13:20:44;;;;;;;57.60;42.40;;;;;;;;;;5063824;28;20048;-71
2022/10/14 13:23:29;;;;;;;55.08;41.35;;;;;;;;;;5065902;28;20049;-71
2022/10/14 13:26:04;;;;;;;48.55;39.05;;;;;;;;;;5065791;28;20132;-71
2022/10/14 13:28:35;;;;;;;47.28;39.33;;;;;;;;;;5048311;28;20502;-71
2022/10/14 13:31:08;;;;;;;48.22;39.47;;;;;;;;;;5016095;28;20064;-71
2022/10/14 13:33:38;;;;;;;48.35;39.58;;;;;;;;;;5051270;28;20045;-71
2022/10/14 13:36:18;;;;;;;48.25;38.28;;;;;;;;;;5051307;28;20106;-71
2022/10/14 13:38:51;;;;;;;47.88;37.83;;;;;;;;;;5051867;28;20114;-71
2022/10/14 13:41:23;;;;;;;44.65;37.25;;;;;;;;;;5052454;28;20052;-71
2022/10/14 13:43:51;;;;;;;48.50;37.55;;;;;;;;;;5014496;28;20504;-71
2022/10/14 13:46:21;;;;;;;46.22;36.50;;;;;;;;;;5042606;28;20046;-71
2022/10/14 13:48:49;;;;;;;44.58;35.50;;;;;;;;;;5037514;27;20049;-71
2022/10/14 13:51:15;;;;;;;41.83;35.58;;;;;;;;;;5139388;27;20555;-71
2022/10/14 13:53:57;;;;;;;41.72;35.35;;;;;;;;;;5141584;27;20039;-71
2022/10/14 13:56:30;;;;;;;42.78;35.65;;;;;;;;;;5138287;27;20059;-71
2022/10/14 13:58:57;;;;;;;41.92;34.28;;;;;;;;;;5133924;27;20475;-70
2022/10/14 14:01:26;;;;;;;38.38;32.33;;;;;;;;;;5150200;27;20074;-71
2022/10/14 14:03:53;;;;;;;36.17;32.25;;;;;;;;;;5136046;27;20142;-71
2022/10/14 14:06:21;;;;;;;34.40;30.80;;;;;;;;;;5153739;27;20050;-71
2022/10/14 14:08:49;;;;;;;33.90;30.23;;;;;;;;;;5156066;27;20354;-71
2022/10/14 14:11:17;;;;;;;35.88;30.83;;;;;;;;;;5153075;27;20043;-71
2022/10/14 14:13:48;;;;;;;31.67;28.38;;;;;;;;;;5155885;27;20488;-71
2022/10/14 14:16:22;;;;;;;31.00;27.63;;;;;;;;;;5153489;27;20495;-71
2022/10/14 14:18:51;;;;;;;31.83;28.38;;;;;;;;;;5121105;27;20092;-71
2022/10/14 14:21:19;;;;;;;32.15;28.65;;;;;;;;;;5135092;27;20079;-71
2022/10/14 14:23:52;;;;;;;34.90;29.45;;;;;;;;;;5135333;27;20108;-71
2022/10/14 14:26:19;;;;;;;35.85;30.90;;;;;;;;;;5134402;27;20141;-72
2022/10/14 14:28:48;;;;;;;33.28;29.38;;;;;;;;;;5135641;27;20118;-71
2022/10/14 14:31:16;;;;;;;35.03;30.50;;;;;;;;;;5150899;27;20488;-71
2022/10/14 14:33:43;;;;;;;34.35;30.52;;;;;;;;;;5136828;27;20528;-71